createdAt,value
2018-04-14T00:01:04.530Z,16.57
2018-04-14T00:03:32.094Z,17.00
2018-04-14T00:05:59.854Z,15.97
2018-04-14T00:08:27.619Z,16.13
2018-04-14T00:10:55.458Z,17.20
2018-04-14T00:13:22.926Z,17.43
2018-04-14T00:15:50.590Z,18.53
2018-04-14T00:18:18.353Z,15.97
2018-04-14T00:20:46.118Z,15.77
2018-04-14T00:23:13.782Z,13.00
2018-04-14T00:25:41.258Z,14.17
2018-04-14T00:28:08.739Z,14.63
2018-04-14T00:30:36.204Z,13.60
2018-04-14T00:33:03.869Z,15.03
2018-04-14T00:35:31.357Z,12.30
2018-04-14T00:37:58.930Z,12.73
2018-04-14T00:40:26.410Z,12.57
2018-04-14T00:42:54.077Z,14.47
2018-04-14T00:45:21.530Z,14.07
2018-04-14T00:47:48.998Z,12.20
2018-04-14T00:50:16.466Z,13.33
2018-04-14T00:52:43.934Z,12.47
2018-04-14T00:55:11.394Z,11.73
2018-04-14T00:57:38.909Z,12.07
2018-04-14T01:00:06.346Z,10.63
2018-04-14T01:02:34.118Z,11.70
2018-04-14T01:05:01.882Z,11.17
2018-04-14T01:07:29.349Z,11.67
2018-04-14T01:09:56.810Z,10.20
2018-04-14T01:12:24.567Z,10.37
2018-04-14T01:14:52.042Z,11.77
2018-04-14T01:17:19.497Z,12.27
2018-04-14T01:19:46.984Z,10.60
2018-04-14T01:22:14.446Z,12.83
2018-04-14T01:24:41.926Z,14.40
2018-04-14T01:27:09.403Z,16.37
2018-04-14T01:29:37.066Z,11.87
2018-04-14T01:32:04.522Z,15.83
2018-04-14T01:34:32.201Z,14.90
2018-04-14T01:36:59.658Z,10.50
2018-04-14T01:39:27.189Z,13.13
2018-04-14T01:41:54.666Z,11.90
2018-04-14T01:44:22.341Z,11.50
2018-04-14T01:46:49.806Z,11.07
2018-04-14T01:49:17.291Z,13.83
2018-04-14T01:51:44.786Z,10.97
2018-04-14T01:54:12.425Z,14.40
2018-04-14T01:56:39.922Z,12.17
2018-04-14T01:59:07.411Z,11.13
2018-04-14T02:01:34.918Z,11.77
2018-04-14T02:04:02.370Z,13.20
2018-04-14T02:06:29.942Z,14.37
2018-04-14T02:08:57.406Z,13.50
2018-04-14T02:11:25.633Z,12.13
2018-04-14T02:13:53.430Z,11.73
2018-04-14T02:16:21.194Z,14.37
2018-04-14T02:18:48.962Z,12.90
2018-04-14T02:21:16.723Z,12.83
2018-04-14T02:23:44.499Z,12.37
2018-04-14T02:26:12.244Z,12.43
2018-04-14T02:28:40.015Z,13.13
2018-04-14T02:31:07.478Z,13.63
2018-04-14T02:33:35.106Z,19.17
2018-04-14T02:36:02.623Z,15.00
2018-04-14T02:38:30.143Z,12.90
2018-04-14T02:40:57.598Z,12.93
2018-04-14T02:43:25.072Z,11.40
2018-04-14T02:45:52.542Z,13.63
2018-04-14T02:48:20.198Z,12.93
2018-04-14T02:50:47.654Z,14.10
2018-04-14T02:53:15.122Z,12.80
2018-04-14T02:55:42.647Z,13.07
2018-04-14T02:58:10.293Z,13.10
2018-04-14T03:00:37.786Z,14.77
2018-04-14T03:03:05.276Z,16.53
2018-04-14T03:05:32.717Z,16.10
2018-04-14T03:08:00.183Z,12.20
2018-04-14T03:10:27.694Z,12.63
2018-04-14T03:12:55.453Z,13.50
2018-04-14T03:15:22.914Z,14.07
2018-04-14T03:17:50.570Z,16.20
2018-04-14T03:20:18.134Z,14.80
2018-04-14T03:22:45.601Z,14.80
2018-04-14T03:25:13.234Z,13.57
2018-04-14T03:27:40.822Z,14.50
2018-04-14T03:30:08.275Z,15.57
2018-04-14T03:32:35.938Z,16.57
2018-04-14T03:35:03.802Z,16.43
2018-04-14T03:37:31.566Z,15.40
2018-04-14T03:39:59.330Z,15.07
2018-04-14T03:42:26.983Z,16.93
2018-04-14T03:44:54.454Z,22.57
2018-04-14T03:47:21.942Z,22.70
2018-04-14T03:49:49.422Z,25.67
2018-04-14T03:52:16.914Z,16.97
2018-04-14T03:54:44.561Z,19.47
2018-04-14T03:57:12.037Z,18.97
2018-04-14T03:59:39.506Z,17.43
2018-04-14T04:02:06.962Z,19.27
2018-04-14T04:04:34.501Z,19.43
2018-04-14T04:07:02.155Z,21.83
2018-04-14T04:09:29.614Z,21.07
2018-04-14T04:11:58.102Z,16.73
2018-04-14T04:14:25.557Z,16.73
2018-04-14T04:16:53.321Z,21.43
2018-04-14T04:19:32.651Z,17.87
2018-04-14T04:22:11.856Z,19.17
2018-04-14T04:24:51.208Z,19.03
2018-04-14T04:27:18.706Z,91.67
2018-04-14T04:29:46.321Z,27.87
2018-04-14T04:32:13.998Z,21.73
2018-04-14T04:34:41.478Z,19.77
2018-04-14T04:37:10.191Z,20.77
2018-04-14T04:39:37.731Z,19.00
2018-04-14T04:42:05.373Z,33.00
2018-04-14T04:44:34.406Z,78.63
2018-04-14T04:47:01.969Z,91.50
2018-04-14T04:49:29.565Z,82.77
2018-04-14T04:51:57.130Z,24.57
2018-04-14T04:54:24.630Z,125.97
2018-04-14T04:56:52.150Z,96.73
2018-04-14T04:59:19.673Z,71.97
2018-04-14T05:01:47.358Z,52.80
2018-04-14T05:04:15.050Z,57.53
2018-04-14T05:06:42.651Z,274.83
2018-04-14T05:09:10.211Z,82.93
2018-04-14T05:11:37.714Z,102.33
2018-04-14T05:14:05.414Z,59.07
2018-04-14T05:16:33.327Z,45.57
2018-04-14T05:19:00.869Z,56.03
2018-04-14T05:21:28.472Z,68.23
2018-04-14T05:23:56.022Z,29.00
2018-04-14T05:26:23.863Z,29.67
2018-04-14T05:28:51.382Z,23.90
2018-04-14T05:31:19.908Z,19.23
2018-04-14T05:33:47.514Z,21.03
2018-04-14T05:36:15.052Z,24.50
2018-04-14T05:38:42.573Z,19.27
2018-04-14T05:41:10.133Z,19.33
2018-04-14T05:43:37.712Z,18.70
2018-04-14T05:46:05.247Z,17.87
2018-04-14T05:48:32.835Z,19.30
2018-04-14T05:51:01.122Z,17.10
2018-04-14T05:53:29.453Z,15.90
2018-04-14T05:55:56.987Z,15.43
2018-04-14T05:58:24.514Z,12.63
2018-04-14T06:00:52.043Z,15.60
2018-04-14T06:03:19.554Z,13.90
2018-04-14T06:05:47.216Z,12.43
2018-04-14T06:08:14.732Z,14.23
2018-04-14T06:10:42.245Z,12.33
2018-04-14T06:13:09.841Z,16.37
2018-04-14T06:15:37.377Z,12.00
2018-04-14T06:18:05.154Z,10.97
2018-04-14T06:20:32.824Z,12.00
2018-04-14T06:23:00.337Z,12.13
2018-04-14T06:25:27.878Z,14.70
2018-04-14T06:27:55.417Z,13.00
2018-04-14T06:30:22.966Z,12.40
2018-04-14T06:32:50.455Z,12.07
2018-04-14T06:35:18.136Z,11.50
2018-04-14T06:37:46.246Z,9.63
2018-04-14T06:40:13.909Z,10.17
2018-04-14T06:42:41.651Z,12.43
2018-04-14T06:45:09.174Z,15.47
2018-04-14T06:47:37.038Z,7.87
2018-04-14T06:50:04.935Z,9.20
2018-04-14T06:52:32.399Z,9.20
2018-04-14T06:54:59.879Z,9.00
2018-04-14T06:57:27.399Z,11.13
2018-04-14T06:59:54.919Z,8.07
2018-04-14T07:02:22.424Z,9.63
2018-04-14T07:04:49.953Z,10.00
2018-04-14T07:07:18.265Z,9.03
2018-04-14T07:09:45.981Z,8.67
2018-04-14T07:12:13.496Z,9.50
2018-04-14T07:14:41.010Z,8.20
2018-04-14T07:17:09.284Z,9.63
2018-04-14T07:19:36.823Z,8.83
2018-04-14T07:22:04.467Z,10.73
2018-04-14T07:24:31.979Z,9.30
2018-04-14T07:27:00.344Z,8.30
2018-04-14T07:29:27.872Z,8.07
2018-04-14T07:31:55.335Z,8.80
2018-04-14T07:34:23.002Z,9.10
2018-04-14T07:36:50.787Z,8.13
2018-04-14T07:39:18.301Z,7.27
2018-04-14T07:41:45.806Z,8.63
2018-04-14T07:44:13.521Z,8.63
2018-04-14T07:46:41.022Z,8.80
2018-04-14T07:49:09.521Z,9.73
2018-04-14T07:51:37.157Z,15.93
2018-04-14T07:54:04.678Z,10.20
2018-04-14T07:56:32.342Z,9.60
2018-04-14T07:59:00.059Z,8.30
2018-04-14T08:01:27.574Z,10.37
2018-04-14T08:03:55.142Z,12.70
2018-04-14T08:06:22.659Z,10.40
2018-04-14T08:08:50.146Z,9.87
2018-04-14T08:11:17.741Z,11.47
2018-04-14T08:13:45.972Z,9.75
2018-04-14T08:16:13.528Z,18.13
2018-04-14T08:18:41.062Z,12.70
2018-04-14T08:21:09.336Z,57.53
2018-04-14T08:23:37.069Z,22.37
2018-04-14T08:26:04.825Z,13.87
2018-04-14T08:28:32.482Z,52.20
2018-04-14T08:31:00.041Z,57.43
2018-04-14T08:33:27.628Z,68.57
2018-04-14T08:35:55.295Z,62.10
2018-04-14T08:38:22.839Z,89.40
2018-04-14T08:40:51.143Z,85.07
2018-04-14T08:43:18.647Z,108.30
2018-04-14T08:45:46.218Z,48.00
2018-04-14T08:48:13.837Z,26.27
2018-04-14T08:50:41.392Z,15.77
2018-04-14T08:53:09.028Z,14.87
2018-04-14T08:55:36.614Z,7.60
2018-04-14T08:58:04.175Z,8.73
2018-04-14T09:00:32.445Z,7.27
2018-04-14T09:03:00.654Z,10.63
2018-04-14T09:05:28.273Z,3.50
2018-04-14T09:07:56.053Z,3.17
2018-04-14T09:10:23.621Z,3.67
2018-04-14T09:12:51.162Z,4.10
2018-04-14T09:15:18.727Z,6.27
2018-04-14T09:17:46.232Z,3.03
2018-04-14T09:20:13.704Z,4.00
2018-04-14T09:22:41.997Z,2.80
2018-04-14T09:25:09.630Z,5.00
2018-04-14T09:27:37.219Z,6.50
2018-04-14T09:30:04.742Z,3.83
2018-04-14T09:32:32.284Z,3.57
2018-04-14T09:34:59.869Z,5.10
2018-04-14T09:37:27.323Z,3.80
2018-04-14T09:39:55.604Z,5.57
2018-04-14T09:42:23.088Z,2.67
2018-04-14T09:44:50.602Z,5.23
2018-04-14T09:47:18.097Z,2.40
2018-04-14T09:49:45.860Z,2.73
2018-04-14T09:52:14.107Z,3.23
2018-04-14T09:54:41.602Z,2.13
2018-04-14T09:57:09.120Z,2.77
2018-04-14T09:59:37.389Z,7.03
2018-04-14T10:02:04.889Z,6.83
2018-04-14T10:04:32.414Z,2.80
2018-04-14T10:07:00.057Z,2.10
2018-04-14T10:09:27.567Z,2.60
2018-04-14T10:11:55.691Z,2.27
2018-04-14T10:14:23.270Z,2.87
2018-04-14T10:16:50.762Z,2.70
2018-04-14T10:19:18.327Z,6.57
2018-04-14T10:21:45.827Z,2.13
2018-04-14T10:24:14.121Z,2.20
2018-04-14T10:26:41.698Z,4.00
2018-04-14T10:29:09.965Z,2.13
2018-04-14T10:31:37.510Z,2.30
2018-04-14T10:34:05.783Z,2.67
2018-04-14T10:36:34.097Z,5.00
2018-04-14T10:39:01.605Z,1.53
2018-04-14T10:41:29.093Z,1.30
2018-04-14T10:43:56.706Z,1.70
2018-04-14T10:46:24.199Z,1.63
2018-04-14T10:48:52.413Z,1.50
2018-04-14T10:51:19.882Z,2.30
2018-04-14T10:53:47.343Z,3.43
2018-04-14T10:56:14.806Z,2.17
2018-04-14T10:58:42.274Z,1.50
2018-04-14T11:01:09.791Z,1.80
2018-04-14T11:03:37.266Z,1.90
2018-04-14T11:06:04.754Z,2.20
2018-04-14T11:08:32.222Z,2.10
2018-04-14T11:10:59.770Z,1.87
2018-04-14T11:13:27.535Z,4.00
2018-04-14T11:15:55.166Z,1.77
2018-04-14T11:18:22.758Z,1.80
2018-04-14T11:20:50.514Z,5.10
2018-04-14T11:23:18.003Z,2.23
2018-04-14T11:25:45.479Z,2.27
2018-04-14T11:28:13.194Z,3.00
2018-04-14T11:30:40.830Z,3.07
2018-04-14T11:33:08.313Z,4.03
2018-04-14T11:35:35.786Z,1.80
2018-04-14T11:38:03.333Z,1.80
2018-04-14T11:40:31.091Z,1.40
2018-04-14T11:42:58.742Z,1.87
2018-04-14T11:45:26.221Z,4.20
2018-04-14T11:47:53.674Z,1.50
2018-04-14T11:50:21.910Z,3.00
2018-04-14T11:52:49.506Z,1.70
2018-04-14T11:55:16.974Z,3.30
2018-04-14T11:57:44.427Z,3.90
2018-04-14T12:00:11.916Z,0.90
2018-04-14T12:02:39.381Z,2.13
2018-04-14T12:05:06.843Z,1.37
2018-04-14T12:07:34.371Z,2.80
2018-04-14T12:10:02.104Z,2.00
2018-04-14T12:12:29.751Z,2.10
2018-04-14T12:14:57.377Z,1.00
2018-04-14T12:17:24.927Z,1.50
2018-04-14T12:19:52.561Z,1.37
2018-04-14T12:22:20.063Z,2.77
2018-04-14T12:24:47.528Z,2.13
2018-04-14T12:27:15.002Z,4.13
2018-04-14T12:29:42.686Z,2.83
2018-04-14T12:32:10.150Z,2.50
2018-04-14T12:34:38.526Z,1.70
2018-04-14T12:37:06.003Z,3.07
2018-04-14T12:39:33.467Z,2.17
2018-04-14T12:42:01.040Z,2.47
2018-04-14T12:44:28.498Z,1.37
2018-04-14T12:46:55.966Z,1.37
2018-04-14T12:49:23.431Z,1.73
2018-04-14T12:51:51.178Z,1.13
2018-04-14T12:54:18.670Z,1.23
2018-04-14T12:56:46.144Z,1.17
2018-04-14T12:59:13.682Z,1.50
2018-04-14T13:01:41.387Z,1.60
2018-04-14T13:04:08.841Z,3.07
2018-04-14T13:06:36.378Z,2.00
2018-04-14T13:09:03.846Z,6.93
2018-04-14T13:11:31.470Z,9.70
2018-04-14T13:13:58.974Z,4.47
2018-04-14T13:16:26.423Z,2.63
2018-04-14T13:18:53.978Z,1.73
2018-04-14T13:21:21.460Z,2.37
2018-04-14T13:23:49.202Z,1.27
2018-04-14T13:26:17.045Z,3.20
2018-04-14T13:28:44.585Z,4.50
2018-04-14T13:31:12.055Z,1.10
2018-04-14T13:33:39.575Z,1.10
2018-04-14T13:36:07.050Z,1.20
2018-04-14T13:38:34.517Z,1.20
2018-04-14T13:41:01.998Z,1.57
2018-04-14T13:43:29.793Z,3.00
2018-04-14T13:45:57.445Z,0.80
2018-04-14T13:48:24.906Z,1.43
2018-04-14T13:50:52.370Z,1.23
2018-04-14T13:53:19.829Z,1.17
2018-04-14T13:55:47.309Z,1.03
2018-04-14T13:58:14.775Z,1.07
2018-04-14T14:00:42.246Z,1.10
2018-04-14T14:03:10.023Z,1.23
2018-04-14T14:05:39.002Z,1.83
2018-04-14T14:08:06.659Z,1.93
2018-04-14T14:10:34.170Z,1.00
2018-04-14T14:13:01.641Z,2.23
2018-04-14T14:15:29.130Z,0.80
2018-04-14T14:17:56.571Z,1.17
2018-04-14T14:20:24.035Z,1.03
2018-04-14T14:22:51.522Z,2.80
2018-04-14T14:25:19.165Z,1.00
2018-04-14T14:27:46.674Z,0.70
2018-04-14T14:30:14.137Z,2.83
2018-04-14T14:32:41.660Z,1.30
2018-04-14T14:35:09.115Z,3.63
2018-04-14T14:37:36.763Z,1.57
2018-04-14T14:40:04.222Z,1.13
2018-04-14T14:42:31.826Z,1.63
2018-04-14T14:44:59.546Z,0.80
2018-04-14T14:47:27.026Z,1.47
2018-04-14T14:50:00.037Z,0.77
2018-04-14T14:52:27.974Z,1.90
2018-04-14T14:54:55.413Z,1.27
2018-04-14T14:57:22.890Z,1.43
2018-04-14T14:59:50.446Z,0.87
2018-04-14T15:02:18.691Z,1.00
2018-04-14T15:04:46.192Z,1.20
2018-04-14T15:07:13.689Z,1.10
2018-04-14T15:09:41.170Z,1.40
2018-04-14T15:12:08.684Z,1.10
2018-04-14T15:14:36.174Z,1.00
2018-04-14T15:17:03.667Z,2.20
2018-04-14T15:19:31.159Z,1.07
2018-04-14T15:21:58.644Z,1.17
2018-04-14T15:24:26.148Z,1.77
2018-04-14T15:26:53.635Z,3.17
2018-04-14T15:29:21.240Z,3.47
2018-04-14T15:31:48.749Z,2.77
2018-04-14T15:34:16.272Z,2.23
2018-04-14T15:36:43.739Z,2.70
2018-04-14T15:39:11.235Z,2.60
2018-04-14T15:41:38.788Z,3.43
2018-04-14T15:44:06.318Z,1.47
2018-04-14T15:46:34.601Z,1.20
2018-04-14T15:49:02.200Z,1.10
2018-04-14T15:51:29.688Z,3.23
2018-04-14T15:53:57.170Z,2.87
2018-04-14T15:56:24.731Z,1.77
2018-04-14T15:58:52.268Z,1.60
2018-04-14T16:01:19.753Z,1.93
2018-04-14T16:03:48.035Z,1.60
2018-04-14T16:06:15.513Z,1.20
2018-04-14T16:08:43.001Z,1.47
2018-04-14T16:11:10.498Z,1.37
2018-04-14T16:13:39.292Z,1.97
2018-04-14T16:16:06.790Z,1.13
2018-04-14T16:18:34.263Z,0.90
2018-04-14T16:21:02.515Z,1.73
2018-04-14T16:23:29.996Z,1.47
2018-04-14T16:25:57.521Z,1.10
2018-04-14T16:28:25.050Z,1.20
2018-04-14T16:30:52.555Z,0.80
2018-04-14T16:33:20.031Z,1.37
2018-04-14T16:35:47.619Z,6.93
2018-04-14T16:38:15.088Z,1.40
2018-04-14T16:40:42.570Z,3.67
2018-04-14T16:43:10.094Z,1.63
2018-04-14T16:45:37.606Z,1.60
2018-04-14T16:48:05.230Z,2.00
2018-04-14T16:50:32.682Z,2.77
2018-04-14T16:53:00.186Z,1.63
2018-04-14T16:55:27.667Z,4.03
2018-04-14T16:57:55.152Z,1.60
2018-04-14T17:00:22.635Z,1.70
2018-04-14T17:02:50.117Z,1.20
2018-04-14T17:05:17.754Z,1.67
2018-04-14T17:07:45.278Z,1.30
2018-04-14T17:10:12.816Z,2.63
2018-04-14T17:12:40.306Z,1.40
2018-04-14T17:15:08.564Z,2.27
2018-04-14T17:17:36.059Z,2.30
2018-04-14T17:20:03.541Z,4.30
2018-04-14T17:22:31.053Z,3.53
2018-04-14T17:24:59.352Z,2.90
2018-04-14T17:27:26.884Z,2.53
2018-04-14T17:29:54.341Z,3.50
2018-04-14T17:32:22.614Z,2.90
2018-04-14T17:34:50.086Z,2.20
2018-04-14T17:37:17.621Z,1.70
2018-04-14T17:39:45.146Z,3.53
2018-04-14T17:42:12.646Z,1.73
2018-04-14T17:44:40.154Z,3.10
2018-04-14T17:47:07.616Z,2.60
2018-04-14T17:49:35.119Z,3.27
2018-04-14T17:52:02.596Z,1.60
2018-04-14T17:54:30.111Z,3.00
2018-04-14T17:56:57.802Z,2.17
2018-04-14T17:59:25.347Z,6.53
2018-04-14T18:01:52.807Z,3.42
2018-04-14T18:04:21.090Z,3.33
2018-04-14T18:06:48.559Z,3.53
2018-04-14T18:09:16.055Z,4.70
2018-04-14T18:11:43.526Z,6.83
2018-04-14T18:14:11.118Z,6.67
2018-04-14T18:16:39.363Z,6.80
2018-04-14T18:19:06.889Z,4.50
2018-04-14T18:21:34.355Z,5.63
2018-04-14T18:24:01.821Z,4.40
2018-04-14T18:26:29.315Z,3.23
2018-04-14T18:28:56.877Z,3.47
2018-04-14T18:31:24.348Z,7.30
2018-04-14T18:33:51.837Z,5.43
2018-04-14T18:36:19.322Z,7.07
2018-04-14T18:38:46.810Z,4.97
2018-04-14T18:41:15.082Z,4.93
2018-04-14T18:43:43.255Z,9.93
2018-04-14T18:46:10.918Z,5.13
2018-04-14T18:48:38.409Z,7.90
2018-04-14T18:51:05.902Z,4.47
2018-04-14T18:53:33.373Z,9.97
2018-04-14T18:56:00.983Z,9.47
2018-04-14T18:58:28.451Z,5.47
2018-04-14T19:00:55.951Z,5.03
2018-04-14T19:03:23.438Z,5.37
2018-04-14T19:05:50.929Z,9.73
2018-04-14T19:08:18.401Z,7.23
2018-04-14T19:10:45.887Z,4.77
2018-04-14T19:13:13.484Z,6.03
2018-04-14T19:15:41.016Z,6.17
2018-04-14T19:18:08.488Z,6.47
2018-04-14T19:20:35.965Z,9.93
2018-04-14T19:23:04.025Z,8.00
2018-04-14T19:25:31.483Z,8.07
2018-04-14T19:27:59.842Z,7.57
2018-04-14T19:30:27.293Z,9.00
2018-04-14T19:32:55.696Z,7.70
2018-04-14T19:35:23.184Z,7.77
2018-04-14T19:37:51.033Z,6.10
2018-04-14T19:40:18.377Z,6.80
2018-04-14T19:42:45.866Z,6.70
2018-04-14T19:45:13.340Z,6.67
2018-04-14T19:47:40.885Z,8.27
2018-04-14T19:50:08.363Z,8.43
2018-04-14T19:52:35.843Z,5.60
2018-04-14T19:55:03.404Z,8.63
2018-04-14T19:57:30.897Z,12.07
2018-04-14T19:59:58.363Z,9.10
2018-04-14T20:02:25.880Z,9.00
2018-04-14T20:04:53.367Z,8.13
2018-04-14T20:07:20.854Z,12.13
2018-04-14T20:09:48.323Z,6.10
2018-04-14T20:12:15.837Z,6.13
2018-04-14T20:14:43.314Z,5.97
2018-04-14T20:17:10.789Z,7.43
2018-04-14T20:19:38.313Z,7.90
2018-04-14T20:22:05.796Z,6.07
2018-04-14T20:24:33.340Z,6.70
2018-04-14T20:27:00.819Z,8.90
2018-04-14T20:29:28.291Z,7.50
2018-04-14T20:31:55.794Z,7.70
2018-04-14T20:34:23.287Z,6.83
2018-04-14T20:36:50.757Z,7.50
2018-04-14T20:39:18.240Z,8.70
2018-04-14T20:41:45.733Z,6.47
2018-04-14T20:44:13.400Z,6.03
2018-04-14T20:46:40.944Z,11.03
2018-04-14T20:49:08.415Z,6.30
2018-04-14T20:51:36.183Z,5.90
2018-04-14T20:54:03.669Z,7.37
2018-04-14T20:56:31.138Z,7.27
2018-04-14T20:58:58.759Z,9.17
2018-04-14T21:01:27.193Z,7.50
2018-04-14T21:03:54.678Z,6.97
2018-04-14T21:06:22.187Z,5.67
2018-04-14T21:08:49.688Z,7.80
2018-04-14T21:11:17.961Z,7.40
2018-04-14T21:13:45.462Z,7.10
2018-04-14T21:16:12.943Z,7.27
2018-04-14T21:18:40.524Z,4.73
2018-04-14T21:21:08.011Z,8.80
2018-04-14T21:23:35.501Z,9.40
2018-04-14T21:26:02.996Z,8.53
2018-04-14T21:28:30.540Z,9.70
2018-04-14T21:30:58.137Z,9.90
2018-04-14T21:33:25.625Z,10.53
2018-04-14T21:35:53.110Z,15.10
2018-04-14T21:38:20.601Z,8.67
2018-04-14T21:40:48.084Z,7.83
2018-04-14T21:43:15.555Z,9.97
2018-04-14T21:45:43.060Z,8.93
2018-04-14T21:48:11.334Z,8.13
2018-04-14T21:50:38.812Z,7.13
2018-04-14T21:53:06.299Z,8.73
2018-04-14T21:55:33.849Z,5.90
2018-04-14T21:58:02.060Z,7.82
2018-04-14T22:00:29.542Z,7.57
2018-04-14T22:02:57.020Z,6.33
2018-04-14T22:05:24.480Z,9.07
2018-04-14T22:07:52.196Z,7.77
2018-04-14T22:10:19.967Z,6.80
2018-04-14T22:12:47.691Z,12.07
2018-04-14T22:15:15.852Z,6.63
2018-04-14T22:17:43.566Z,6.80
2018-04-14T22:20:11.024Z,7.33
2018-04-14T22:22:38.783Z,8.53
2018-04-14T22:25:06.279Z,5.30
2018-04-14T22:27:33.762Z,7.63
2018-04-14T22:30:01.214Z,7.37
2018-04-14T22:32:28.917Z,5.53
2018-04-14T22:34:57.089Z,6.00
2018-04-14T22:37:24.634Z,7.57
2018-04-14T22:39:52.848Z,7.60
2018-04-14T22:42:20.335Z,6.37
2018-04-14T22:44:48.054Z,6.83
2018-04-14T22:47:15.790Z,7.00
2018-04-14T22:49:43.557Z,7.27
2018-04-14T22:52:11.145Z,6.23
2018-04-14T22:54:38.602Z,6.73
2018-04-14T22:57:06.258Z,9.00
2018-04-14T22:59:33.791Z,11.23
2018-04-14T23:02:01.410Z,9.43
2018-04-14T23:04:28.939Z,12.30
2018-04-14T23:06:56.399Z,9.30
2018-04-14T23:09:24.162Z,7.40
2018-04-14T23:11:51.922Z,4.43
2018-04-14T23:14:19.387Z,8.13
2018-04-14T23:16:47.150Z,8.43
2018-04-14T23:19:14.655Z,11.47
2018-04-14T23:21:42.267Z,10.87
2018-04-14T23:24:09.734Z,13.00
2018-04-14T23:26:37.195Z,9.80
2018-04-14T23:29:04.672Z,10.20
2018-04-14T23:31:32.128Z,11.70
2018-04-14T23:33:59.585Z,7.00
2018-04-14T23:36:27.086Z,9.40
2018-04-14T23:38:54.565Z,12.73
2018-04-14T23:41:22.312Z,10.17
2018-04-14T23:43:49.958Z,14.03
2018-04-14T23:46:17.539Z,7.03
2018-04-14T23:48:44.997Z,7.17
2018-04-14T23:51:12.755Z,9.60
2018-04-14T23:53:40.392Z,12.90
2018-04-14T23:56:07.864Z,7.30
2018-04-14T23:58:35.330Z,11.30
